Details From RJOA - HIROSHIMA
To RJBB - KANSAI INTL
Flight Number -
Tags generated
Created
Modified
Stats Distance 115 nm / 212 km
Max Altitude 10,000 ft / 3,048 m
Waypoints 3
Social Downloads 2
Likes 0
Share VATSIM

Download

Looking for another format? Having issues loading an existing format? Contact us
Advertisement - Login to hide

Notes

Basic altitude profile: - Ascent Rate: 2500ft/min - Ascent Speed: 250kts - Cruise Altitude: 35000ft - Cruise Speed: 420kts - Descent Rate: 1500ft/min - Descent Speed: 250kts Options: - Use NATs: yes - Use PACOTS: yes - Use low airways: yes - Use high airways: yes

Route

RJOA SHION RJBB

ID Type Via Altitude Latitude Longitude Leg Dist Tot Dist Heading (true) Name
O RJOA APT - 0 ft / 0 m 34.43603˚ 132.91944˚ - 0 nm - HIROSHIMA
SHION FIX - 10,000 ft / 3,048 m 34.42837˚ 134.28261˚ 67 nm 67 nm 90° / 91° -
O RJBB APT - 0 ft / 0 m 34.43362˚ 135.23360˚ 47 nm 114 nm 89° / 90° KANSAI INTL

Altitude Profile

Advertisement - Login to hide

RJOA

Details ICAO RJOA (HIJ)
Name HIROSHIMA
Region Japan
Timezone Asia/Tokyo (UTC+9.0)
Stats Elevation 1,088 ft / 332 m (AMSL)
Location 34.436025° 132.919444°
Runways 1
Magnetic Variation 7.728° W

METAR

RJOA 250500Z 22006KT 170V240 CAVOK 27/06 Q1008

Decode

TAF

TAF RJOA 242307Z 2500/2606 20005KT 9999 FEW035 BECMG 2518/2521 15005KT

Decode

Departure Runways

ID Width Length Bearing (true) Bearing (mag) Surface Threshold Offset Overrun Length
10 200 ft / 61 m 9,823 ft / 2,994 m 89.99° 97.72° Asphalt 0 ft / 0 m 210 ft / 64 m
28 200 ft / 61 m 9,823 ft / 2,994 m 270.01° 277.74° Asphalt 0 ft / 0 m 210 ft / 64 m

RJBB

Details ICAO RJBB (KIX)
Name KANSAI INTL
Region Japan
Timezone Asia/Tokyo (UTC+9.0)
Stats Elevation 26 ft / 8 m (AMSL)
Location 34.433619° 135.233598°
Runways 2
Magnetic Variation 7.611° W

METAR

RJBB 250500Z 27008KT CAVOK 26/14 Q1007 NOSIG

Decode

TAF

TAF RJBB 242310Z 2500/2606 26006KT CAVOK BECMG 2512/2515 12004KT BECMG 2600/2603 24010KT

Decode

Destination Runways

ID Width Length Bearing (true) Bearing (mag) Surface Threshold Offset Overrun Length
06L 200 ft / 61 m 13,121 ft / 3,999 m 50.86° 58.47° Asphalt 0 ft / 0 m 200 ft / 61 m
06R 200 ft / 61 m 11,481 ft / 3,499 m 50.86° 58.47° Asphalt 0 ft / 0 m 200 ft / 61 m
24L 200 ft / 61 m 11,481 ft / 3,499 m 230.88° 238.49° Asphalt 0 ft / 0 m 200 ft / 61 m
24R 200 ft / 61 m 13,121 ft / 3,999 m 230.88° 238.49° Asphalt 0 ft / 0 m 200 ft / 61 m

Approach Navaids

Runway Type Ident Frequency Range Bearing (true) Bearing (mag) Slope Elevation
06R Localiser IKD 108.10 MHz 18 nm / 33 km 50.88° 58.49° - 26 ft / 8 m (AMSL)
06R Glidescope IKD 108.10 MHz 10 nm / 19 km 50.87° 58.48° 3.00° 54 ft / 16 m (AMSL)
06R DME IKD 108.10 MHz 18 nm / 33 km - - - 34 ft / 10 m (AMSL)
24L Localiser IKN 110.70 MHz 18 nm / 33 km 230.85° 238.46° - 26 ft / 8 m (AMSL)
24L Glidescope IKN 110.70 MHz 10 nm / 19 km 230.87° 238.48° 3.00° 36 ft / 11 m (AMSL)
24L DME IKN 110.70 MHz 18 nm / 33 km - - - 36 ft / 11 m (AMSL)

Popular Alternatives